createdAt,value
2023-01-17T00:00:11.175Z,97.53
2023-01-17T00:01:11.084Z,97.85
2023-01-17T00:02:11.108Z,97.02
2023-01-17T00:03:11.080Z,96.70
2023-01-17T00:04:11.139Z,96.70
2023-01-17T00:05:11.042Z,96.39
2023-01-17T00:06:11.050Z,96.60
2023-01-17T00:07:11.022Z,96.81
2023-01-17T00:08:11.035Z,95.67
2023-01-17T00:09:11.023Z,95.77
2023-01-17T00:10:11.010Z,96.60
2023-01-17T00:11:10.978Z,97.64
2023-01-17T00:12:10.990Z,97.33
2023-01-17T00:13:10.974Z,97.33
2023-01-17T00:14:10.963Z,96.70
2023-01-17T00:15:10.943Z,95.98
2023-01-17T00:16:11.008Z,96.39
2023-01-17T00:17:10.913Z,95.98
2023-01-17T00:18:10.925Z,96.70
2023-01-17T00:19:10.898Z,96.29
2023-01-17T00:20:10.892Z,95.98
2023-01-17T00:21:10.880Z,95.56
2023-01-17T00:22:10.921Z,95.15
2023-01-17T00:23:10.852Z,95.46
2023-01-17T00:24:10.867Z,95.56
2023-01-17T00:25:10.830Z,96.08
2023-01-17T00:26:10.851Z,95.93
2023-01-17T00:27:10.814Z,96.24
2023-01-17T00:28:10.833Z,96.34
2023-01-17T00:29:10.791Z,95.41
2023-01-17T00:30:10.826Z,95.10
2023-01-17T00:31:10.819Z,95.20
2023-01-17T00:32:10.775Z,95.51
2023-01-17T00:33:10.742Z,94.48
2023-01-17T00:34:10.771Z,93.65
2023-01-17T00:35:10.728Z,94.37
2023-01-17T00:36:10.753Z,94.17
2023-01-17T00:37:10.720Z,94.89
2023-01-17T00:38:10.703Z,94.06
2023-01-17T00:39:10.711Z,94.58
2023-01-17T00:40:10.681Z,95.31
2023-01-17T00:41:10.668Z,94.79
2023-01-17T00:42:10.663Z,92.30
2023-01-17T00:43:10.640Z,93.75
2023-01-17T00:44:10.657Z,93.54
2023-01-17T00:45:10.658Z,93.65
2023-01-17T00:46:10.749Z,91.89
2023-01-17T00:47:10.603Z,94.17
2023-01-17T00:48:10.627Z,93.13
2023-01-17T00:49:10.600Z,92.10
2023-01-17T00:50:10.617Z,91.16
2023-01-17T00:51:10.557Z,91.78
2023-01-17T00:52:10.565Z,93.33
2023-01-17T00:53:10.568Z,93.33
2023-01-17T00:54:10.571Z,92.41
2023-01-17T00:55:10.553Z,92.10
2023-01-17T00:56:10.547Z,92.61
2023-01-17T00:57:10.507Z,94.89
2023-01-17T00:58:10.506Z,92.61
2023-01-17T00:59:10.477Z,92.72
2023-01-17T01:00:10.494Z,92.20
2023-01-17T01:01:10.617Z,93.85
2023-01-17T01:02:10.532Z,92.41
2023-01-17T01:03:10.441Z,93.54
2023-01-17T01:04:10.440Z,92.76
2023-01-17T01:05:10.418Z,91.31
2023-01-17T01:06:10.450Z,91.93
2023-01-17T01:07:10.385Z,90.89
2023-01-17T01:08:10.397Z,91.62
2023-01-17T01:09:10.396Z,91.10
2023-01-17T01:10:10.394Z,91.93
2023-01-17T01:11:10.382Z,93.18
2023-01-17T01:12:10.350Z,91.52
2023-01-17T01:13:10.330Z,91.72
2023-01-17T01:14:10.347Z,90.89
2023-01-17T01:15:10.303Z,91.62
2023-01-17T01:16:10.367Z,91.41
2023-01-17T01:17:10.311Z,91.52
2023-01-17T01:18:10.302Z,91.00
2023-01-17T01:19:10.263Z,92.45
2023-01-17T01:20:10.307Z,91.93
2023-01-17T01:21:10.242Z,91.00
2023-01-17T01:22:10.261Z,91.72
2023-01-17T01:23:10.243Z,90.79
2023-01-17T01:24:10.230Z,92.45
2023-01-17T01:25:10.220Z,90.58
2023-01-17T01:26:10.222Z,90.37
2023-01-17T01:27:10.179Z,91.41
2023-01-17T01:28:10.206Z,91.72
2023-01-17T01:29:10.154Z,92.03
2023-01-17T01:30:10.169Z,91.31
2023-01-17T01:31:10.184Z,91.31
2023-01-17T01:32:10.149Z,89.79
2023-01-17T01:33:10.142Z,91.24
2023-01-17T01:34:10.117Z,91.55
2023-01-17T01:35:10.107Z,89.69
2023-01-17T01:36:10.109Z,88.75
2023-01-17T01:37:10.084Z,92.18
2023-01-17T01:38:10.081Z,89.89
2023-01-17T01:39:10.102Z,90.83
2023-01-17T01:40:10.062Z,90.20
2023-01-17T01:41:10.041Z,90.00
2023-01-17T01:42:10.070Z,89.37
2023-01-17T01:43:10.012Z,88.65
2023-01-17T01:44:10.034Z,89.37
2023-01-17T01:45:10.000Z,90.72
2023-01-17T01:46:10.107Z,88.54
2023-01-17T01:47:09.983Z,88.54
2023-01-17T01:48:09.963Z,90.31
2023-01-17T01:49:09.977Z,90.41
2023-01-17T01:50:09.942Z,89.27
2023-01-17T01:51:09.957Z,90.83
2023-01-17T01:52:09.926Z,91.86
2023-01-17T01:53:09.922Z,90.20
2023-01-17T01:54:09.899Z,90.52
2023-01-17T01:55:09.924Z,91.70
2023-01-17T01:56:09.880Z,90.45
2023-01-17T01:57:09.895Z,89.62
2023-01-17T01:58:09.886Z,90.87
2023-01-17T01:59:09.854Z,90.77
2023-01-17T02:00:09.840Z,90.77
2023-01-17T02:01:09.958Z,90.35
2023-01-17T02:02:09.817Z,90.04
2023-01-17T02:03:09.838Z,90.04
2023-01-17T02:04:10.116Z,89.46
2023-01-17T02:05:09.804Z,89.25
2023-01-17T02:06:09.787Z,88.31
2023-01-17T02:07:09.788Z,89.87
2023-01-17T02:08:09.759Z,88.21
2023-01-17T02:09:09.757Z,87.90
2023-01-17T02:10:09.764Z,89.67
2023-01-17T02:11:09.761Z,90.81
2023-01-17T02:12:09.729Z,89.67
2023-01-17T02:13:09.732Z,89.56
2023-01-17T02:14:09.705Z,89.25
2023-01-17T02:15:09.689Z,90.29
2023-01-17T02:16:09.714Z,90.60
2023-01-17T02:17:09.674Z,89.77
2023-01-17T02:18:09.672Z,90.39
2023-01-17T02:19:09.647Z,90.70
2023-01-17T02:20:09.630Z,89.92
2023-01-17T02:21:09.645Z,90.85
2023-01-17T02:22:09.609Z,89.08
2023-01-17T02:23:09.631Z,89.29
2023-01-17T02:24:09.608Z,90.12
2023-01-17T02:25:09.614Z,90.95
2023-01-17T02:26:09.559Z,90.54
2023-01-17T02:27:09.569Z,91.37
2023-01-17T02:28:09.550Z,90.64
2023-01-17T02:29:09.557Z,89.29
2023-01-17T07:00:56.437Z,92.29
2023-01-17T07:01:57.241Z,92.08
2023-01-17T07:02:57.230Z,91.77
2023-01-17T07:03:57.250Z,92.08
2023-01-17T07:04:57.195Z,93.33
2023-01-17T07:05:57.203Z,90.83
2023-01-17T07:06:57.177Z,90.72
2023-01-17T07:07:57.194Z,91.56
2023-01-17T07:08:57.161Z,92.91
2023-01-17T07:09:57.179Z,92.18
2023-01-17T07:10:57.131Z,91.35
2023-01-17T07:11:57.144Z,91.35
2023-01-17T07:12:57.108Z,91.87
2023-01-17T07:13:57.149Z,92.02
2023-01-17T07:14:57.086Z,90.83
2023-01-17T07:15:57.132Z,91.39
2023-01-17T07:16:57.069Z,91.60
2023-01-17T07:17:57.081Z,91.91
2023-01-17T07:18:57.082Z,91.71
2023-01-17T07:19:57.054Z,92.64
2023-01-17T07:20:57.031Z,90.87
2023-01-17T07:21:57.065Z,90.66
2023-01-17T07:22:57.011Z,91.18
2023-01-17T07:23:57.013Z,91.60
2023-01-17T07:24:57.009Z,92.85
2023-01-17T07:25:57.001Z,92.54
2023-01-17T07:26:56.971Z,93.16
2023-01-17T07:27:56.972Z,92.22
2023-01-17T07:28:56.944Z,90.56
2023-01-17T07:29:56.947Z,92.33
2023-01-17T07:30:56.951Z,91.81
2023-01-17T07:31:56.943Z,91.91
2023-01-17T07:32:56.901Z,93.16
2023-01-17T07:33:56.917Z,91.60
2023-01-17T07:34:56.898Z,91.28
2023-01-17T07:35:56.891Z,92.85
2023-01-17T07:36:56.889Z,93.48
2023-01-17T07:37:56.868Z,94.10
2023-01-17T07:38:56.836Z,93.89
2023-01-17T07:39:56.843Z,94.20
2023-01-17T07:40:56.816Z,94.72
2023-01-17T07:41:56.820Z,93.48
2023-01-17T07:42:56.831Z,92.95
2023-01-17T07:43:56.822Z,93.58
2023-01-17T07:44:56.778Z,93.48
2023-01-17T07:45:56.781Z,92.95
2023-01-17T07:46:56.785Z,94.51
2023-01-17T07:47:56.758Z,93.89
2023-01-17T07:48:56.759Z,92.74
2023-01-17T07:49:56.746Z,92.85
2023-01-17T07:50:56.728Z,93.79
2023-01-17T07:51:56.729Z,92.85
2023-01-17T07:52:56.695Z,93.05
2023-01-17T07:53:56.701Z,93.58
2023-01-17T07:54:56.723Z,92.22
2023-01-17T07:55:56.709Z,92.95
2023-01-17T07:56:56.702Z,93.48
2023-01-17T07:57:56.705Z,94.82
2023-01-17T07:58:56.642Z,93.48
2023-01-17T07:59:56.649Z,94.51
2023-01-17T08:00:56.702Z,94.41
2023-01-17T08:01:56.792Z,93.99
2023-01-17T08:02:56.589Z,94.72
2023-01-17T08:03:56.724Z,93.99
2023-01-17T08:04:56.585Z,93.89
2023-01-17T08:05:56.571Z,92.95
2023-01-17T08:06:56.561Z,93.99
2023-01-17T08:07:56.558Z,93.48
2023-01-17T08:08:57.088Z,93.79
2023-01-17T08:09:56.556Z,94.31
2023-01-17T08:10:56.510Z,93.16
2023-01-17T08:11:56.529Z,94.10
2023-01-17T08:12:56.491Z,93.10
2023-01-17T08:13:56.498Z,94.24
2023-01-17T08:14:56.474Z,93.52
2023-01-17T08:15:56.510Z,93.83
2023-01-17T08:16:56.467Z,93.31
2023-01-17T08:17:56.469Z,92.68
2023-01-17T08:18:56.424Z,92.99
2023-01-17T08:19:56.445Z,92.68
2023-01-17T08:20:56.401Z,93.10
2023-01-17T08:21:56.410Z,93.20
2023-01-17T08:22:56.375Z,93.52
2023-01-17T08:23:56.403Z,92.47
2023-01-17T08:24:56.393Z,93.20
2023-01-17T08:25:56.374Z,93.73
2023-01-17T08:26:56.386Z,93.41
2023-01-17T08:27:56.340Z,92.89
2023-01-17T08:28:56.336Z,92.68
2023-01-17T08:29:56.317Z,92.79
2023-01-17T08:30:56.349Z,92.47
2023-01-17T08:31:56.308Z,92.99
2023-01-17T08:32:56.306Z,93.79
2023-01-17T08:33:56.276Z,92.99
2023-01-17T08:34:56.294Z,92.64
2023-01-17T08:35:56.240Z,93.68
2023-01-17T08:36:56.327Z,93.89
2023-01-17T08:37:56.239Z,95.66
2023-01-17T08:38:56.231Z,94.41
2023-01-17T08:39:56.222Z,92.64
2023-01-17T08:40:56.211Z,92.12
2023-01-17T08:41:56.200Z,92.64
2023-01-17T08:42:56.233Z,92.22
2023-01-17T08:43:56.177Z,93.16
2023-01-17T08:44:56.164Z,93.79
2023-01-17T08:45:56.280Z,93.48
2023-01-17T08:46:56.157Z,92.54
2023-01-17T08:47:56.126Z,92.95
2023-01-17T08:48:56.168Z,92.64
2023-01-17T08:49:56.122Z,91.71
2023-01-17T08:50:56.106Z,92.12
2023-01-17T08:51:56.077Z,92.64
2023-01-17T08:52:56.088Z,93.27
2023-01-17T08:53:56.063Z,93.37
2023-01-17T08:54:56.099Z,92.64
2023-01-17T08:55:56.034Z,92.85
2023-01-17T08:56:56.043Z,92.02
2023-01-17T08:57:56.015Z,92.95
2023-01-17T08:58:56.049Z,92.74
2023-01-17T08:59:55.991Z,91.81
2023-01-17T09:00:56.051Z,92.64
2023-01-17T09:01:56.191Z,92.12
2023-01-17T09:02:55.977Z,92.95
2023-01-17T09:03:55.991Z,92.85
2023-01-17T09:04:55.969Z,93.89
2023-01-17T09:05:55.931Z,92.64
2023-01-17T09:06:55.947Z,92.22
2023-01-17T09:07:55.912Z,92.74
2023-01-17T09:08:55.944Z,92.85
2023-01-17T09:09:55.943Z,93.05
2023-01-17T09:10:55.926Z,92.64
2023-01-17T09:11:55.869Z,93.37
2023-01-17T09:12:55.892Z,92.33
2023-01-17T09:13:55.866Z,92.33
2023-01-17T09:14:55.871Z,91.91
2023-01-17T09:15:55.853Z,92.64
2023-01-17T09:16:55.859Z,93.16
2023-01-17T09:17:55.806Z,92.33
2023-01-17T09:18:55.847Z,90.87
2023-01-17T09:19:55.809Z,91.28
2023-01-17T09:20:55.831Z,89.83
2023-01-17T09:21:55.798Z,90.25
2023-01-17T09:22:55.789Z,90.97
2023-01-17T09:23:55.762Z,91.08
2023-01-17T09:24:55.756Z,90.25
2023-01-17T09:25:55.744Z,91.28
2023-01-17T09:26:55.747Z,91.08
2023-01-17T09:27:55.735Z,90.87
2023-01-17T09:28:55.721Z,90.87
2023-01-17T09:29:55.685Z,90.45
2023-01-17T09:30:55.749Z,91.28
2023-01-17T09:31:55.663Z,91.08
2023-01-17T09:32:55.676Z,91.39
2023-01-17T09:33:55.659Z,90.97
2023-01-17T09:34:55.665Z,92.12
2023-01-17T09:35:55.623Z,91.91
2023-01-17T09:36:55.624Z,91.39
2023-01-17T09:37:57.238Z,91.50
2023-01-17T09:38:55.619Z,90.97
2023-01-17T09:39:55.597Z,90.45
2023-01-17T09:40:55.581Z,90.72
2023-01-17T09:41:55.579Z,91.14
2023-01-17T09:42:55.567Z,90.52
2023-01-17T09:43:55.534Z,91.25
2023-01-17T09:44:55.542Z,91.56
2023-01-17T09:45:55.573Z,91.56
2023-01-17T09:46:55.575Z,91.77
2023-01-17T09:47:55.511Z,91.56
2023-01-17T09:48:55.505Z,91.46
2023-01-17T09:49:55.479Z,91.14
2023-01-17T09:50:55.480Z,92.29
2023-01-17T09:51:55.454Z,91.04
2023-01-17T09:52:55.486Z,90.10
2023-01-17T09:53:55.453Z,89.37
2023-01-17T09:54:55.434Z,89.48
2023-01-17T09:55:55.415Z,89.89
2023-01-17T09:56:55.415Z,89.89
2023-01-17T09:57:55.405Z,89.17
2023-01-17T09:58:55.399Z,89.69
2023-01-17T10:00:02.963Z,90.31
2023-01-17T10:00:55.511Z,87.40
2023-01-17T10:01:55.603Z,87.71
2023-01-17T10:02:55.530Z,86.57
2023-01-17T10:03:55.490Z,87.92
2023-01-17T10:04:55.339Z,86.04
2023-01-17T10:05:55.328Z,87.81
2023-01-17T10:06:55.309Z,89.37
2023-01-17T10:07:55.291Z,87.81
2023-01-17T10:08:55.307Z,86.88
2023-01-17T10:09:55.286Z,85.63
2023-01-17T10:10:55.274Z,86.57
2023-01-17T10:11:55.305Z,88.33
2023-01-17T10:12:55.254Z,89.17
2023-01-17T10:13:55.231Z,89.69
2023-01-17T10:14:55.220Z,88.54
2023-01-17T10:15:55.213Z,85.52
2023-01-17T10:16:55.532Z,86.46
2023-01-17T10:17:55.179Z,87.40
2023-01-17T10:18:55.187Z,85.17
2023-01-17T10:19:55.195Z,83.23
2023-01-17T10:20:55.171Z,84.86
2023-01-17T10:21:55.144Z,84.44
2023-01-17T10:22:55.188Z,84.13
2023-01-17T10:23:55.126Z,84.44
2023-01-17T10:24:55.130Z,84.75
2023-01-17T10:25:55.096Z,85.28
2023-01-17T10:26:55.105Z,85.49
2023-01-17T10:27:55.091Z,86.52
2023-01-17T10:28:55.101Z,84.03
2023-01-17T10:29:55.068Z,83.30
2023-01-17T10:30:55.116Z,81.63
2023-01-17T10:31:55.042Z,82.89
2023-01-17T10:32:55.079Z,83.51
2023-01-17T10:33:55.030Z,84.03
2023-01-17T10:34:55.043Z,83.47
2023-01-17T10:35:55.015Z,81.18
2023-01-17T10:36:55.010Z,83.37
2023-01-17T10:37:54.979Z,84.72
2023-01-17T10:38:54.985Z,80.87
2023-01-17T10:39:54.955Z,82.64
2023-01-17T10:40:54.988Z,83.16
2023-01-17T10:41:54.955Z,82.95
2023-01-17T10:42:54.933Z,83.05
2023-01-17T10:43:54.914Z,82.32
2023-01-17T10:44:54.934Z,84.92
2023-01-17T10:45:54.949Z,83.89
2023-01-17T10:46:54.907Z,83.58
2023-01-17T10:47:54.890Z,83.16
2023-01-17T10:48:54.910Z,84.72
2023-01-17T10:49:54.861Z,82.43
2023-01-17T10:50:54.875Z,81.39
2023-01-17T10:51:54.842Z,83.05
2023-01-17T10:52:54.832Z,82.22
2023-01-17T10:53:54.806Z,83.99
2023-01-17T10:54:54.842Z,83.16
2023-01-17T10:55:54.803Z,79.00
2023-01-17T10:56:54.803Z,79.62
2023-01-17T10:57:54.777Z,77.65
2023-01-17T10:58:54.786Z,80.15
2023-01-17T10:59:54.770Z,80.25
2023-01-17T11:00:54.771Z,79.31
2023-01-17T11:01:54.910Z,79.62
2023-01-17T11:02:54.820Z,79.31
2023-01-17T11:03:54.713Z,79.72
2023-01-17T11:04:54.742Z,80.66
2023-01-17T11:05:54.681Z,83.26
2023-01-17T11:06:58.257Z,82.01
2023-01-17T11:07:54.819Z,80.21
2023-01-17T11:08:54.679Z,82.95
2023-01-17T11:09:54.647Z,82.50
2023-01-17T11:10:54.662Z,80.42
2023-01-17T11:11:54.623Z,80.35
2023-01-17T11:12:54.684Z,80.15
2023-01-17T11:13:54.615Z,83.05
2023-01-17T11:14:54.605Z,82.32
2023-01-17T11:15:54.604Z,81.60
2023-01-17T11:16:54.581Z,82.74
2023-01-17T11:17:54.555Z,81.49
2023-01-17T11:18:54.571Z,81.60
2023-01-17T11:19:54.563Z,81.49
2023-01-17T11:20:54.545Z,79.62
2023-01-17T11:21:54.531Z,80.83
2023-01-17T11:22:54.545Z,78.65
2023-01-17T11:23:54.516Z,79.48
2023-01-17T11:24:54.507Z,82.81
2023-01-17T11:25:54.472Z,82.70
2023-01-17T11:26:54.473Z,80.73
2023-01-17T11:27:54.459Z,80.63
2023-01-17T11:28:54.475Z,81.46
2023-01-17T11:29:54.446Z,82.81
2023-01-17T11:30:54.482Z,81.35
2023-01-17T11:31:54.419Z,79.69
2023-01-17T11:32:54.419Z,80.90
2023-01-17T11:33:54.386Z,81.25
2023-01-17T11:34:54.405Z,81.01
2023-01-17T11:35:54.389Z,80.07
2023-01-17T11:36:54.379Z,80.90
2023-01-17T11:37:54.352Z,81.52
2023-01-17T11:38:54.347Z,79.97
2023-01-17T11:39:54.331Z,80.90
2023-01-17T11:40:54.345Z,78.92
2023-01-17T11:41:54.315Z,80.69
2023-01-17T11:42:54.596Z,79.76
2023-01-17T11:43:54.303Z,79.83
2023-01-17T11:44:54.287Z,80.97
2023-01-17T11:45:54.325Z,78.37
2023-01-17T11:46:54.264Z,78.68
2023-01-17T11:47:54.240Z,73.60
2023-01-17T11:48:56.131Z,72.97
2023-01-17T11:49:54.224Z,74.32
2023-01-17T11:50:54.235Z,75.26
2023-01-17T11:51:54.223Z,75.85
2023-01-17T11:52:54.223Z,77.72
2023-01-17T11:53:54.194Z,77.09
2023-01-17T11:54:54.201Z,77.30
2023-01-17T11:55:54.163Z,77.82
2023-01-17T11:56:54.192Z,77.61
2023-01-17T11:57:56.408Z,77.82
2023-01-17T11:58:54.145Z,76.68
2023-01-17T11:59:54.135Z,77.06
2023-01-17T12:00:54.153Z,76.43
2023-01-17T12:01:54.116Z,76.54
2023-01-17T12:02:54.101Z,77.26
2023-01-17T12:03:54.128Z,76.75
2023-01-17T12:04:54.114Z,78.30
2023-01-17T12:05:54.052Z,79.61
2023-01-17T12:06:57.933Z,78.58
2023-01-17T12:07:54.042Z,76.81
2023-01-17T12:08:54.057Z,76.50
2023-01-17T12:09:54.009Z,75.67
2023-01-17T12:10:54.052Z,77.33
2023-01-17T12:11:53.982Z,75.67
2023-01-17T12:12:54.020Z,76.61
2023-01-17T12:13:53.980Z,77.33
2023-01-17T12:14:54.027Z,74.84
2023-01-17T12:15:53.996Z,75.32
2023-01-17T12:16:53.964Z,74.71
2023-01-17T12:17:53.956Z,74.91
2023-01-17T12:18:53.930Z,74.81
2023-01-17T12:19:53.900Z,75.32
2023-01-17T12:20:53.907Z,74.91
2023-01-17T12:21:53.890Z,75.95
2023-01-17T12:22:53.889Z,74.71
2023-01-17T12:23:53.891Z,72.11
2023-01-17T12:24:53.865Z,72.53
2023-01-17T12:25:53.836Z,72.74
2023-01-17T12:26:53.860Z,73.88
2023-01-17T12:27:53.823Z,69.32
2023-01-17T12:28:53.833Z,75.74
2023-01-17T12:29:53.820Z,77.67
2023-01-17T12:30:53.814Z,74.88
2023-01-17T12:31:53.768Z,77.88
2023-01-17T12:32:53.779Z,72.50
2023-01-17T12:33:53.765Z,74.05
2023-01-17T12:34:53.787Z,74.67
2023-01-17T12:35:53.730Z,75.09
2023-01-17T12:36:53.772Z,74.67
2023-01-17T12:38:04.423Z,70.21
2023-01-17T12:38:53.721Z,73.84
2023-01-17T12:39:53.713Z,73.50
2023-01-17T12:40:53.693Z,71.84
2023-01-17T12:41:53.673Z,68.12
2023-01-17T12:42:53.657Z,70.81
2023-01-17T12:43:53.670Z,71.22
2023-01-17T12:44:53.631Z,72.88
2023-01-17T12:45:53.635Z,73.60
2023-01-17T12:46:53.670Z,72.25
2023-01-17T12:47:53.619Z,72.98
2023-01-17T12:48:53.601Z,70.39
2023-01-17T12:49:53.606Z,73.29
2023-01-17T12:50:53.578Z,71.84
2023-01-17T12:51:53.628Z,73.71
2023-01-17T12:52:53.538Z,72.98
2023-01-17T12:53:53.562Z,71.63
2023-01-17T12:54:53.528Z,72.36
2023-01-17T12:55:53.562Z,74.53
2023-01-17T12:56:53.500Z,68.60
2023-01-17T12:57:53.534Z,72.46
2023-01-17T12:58:53.475Z,71.60
2023-01-17T12:59:53.481Z,69.95
2023-01-17T13:00:53.501Z,72.02
2023-01-17T13:01:53.537Z,73.36
2023-01-17T13:02:53.472Z,72.22
2023-01-17T13:03:55.056Z,69.22
2023-01-17T13:04:58.827Z,69.32
2023-01-17T13:05:53.469Z,74.19
2023-01-17T13:06:53.393Z,71.70
2023-01-17T13:07:53.427Z,72.43
2023-01-17T13:08:53.368Z,74.19
2023-01-17T13:09:53.402Z,74.71
2023-01-17T13:10:53.356Z,72.22
2023-01-17T13:11:53.351Z,74.40
2023-01-17T13:12:53.354Z,72.53
2023-01-17T13:13:53.345Z,72.53
2023-01-17T13:14:53.306Z,73.46
2023-01-17T13:15:53.340Z,76.26
2023-01-17T13:16:53.297Z,75.74
2023-01-17T13:17:53.319Z,75.02
2023-01-17T13:18:53.277Z,76.88
2023-01-17T13:19:53.300Z,76.36
2023-01-17T13:20:53.246Z,73.77
2023-01-17T13:21:53.277Z,70.47
2023-01-17T13:22:53.230Z,72.02
2023-01-17T13:23:53.223Z,72.77
2023-01-17T13:24:53.233Z,73.60
2023-01-17T13:25:53.205Z,72.98
2023-01-17T13:26:53.193Z,73.81
2023-01-17T13:27:53.181Z,75.05
2023-01-17T13:28:54.988Z,75.46
2023-01-17T13:29:53.159Z,73.50
2023-01-17T13:30:53.159Z,71.94
2023-01-17T13:31:53.208Z,73.50
2023-01-17T13:32:53.108Z,75.26
2023-01-17T13:33:53.108Z,73.71
2023-01-17T13:34:53.103Z,71.53
2023-01-17T13:35:53.100Z,70.50
2023-01-17T13:36:53.080Z,71.84
2023-01-17T13:37:53.074Z,72.25
2023-01-17T13:38:53.063Z,69.98
2023-01-17T13:39:53.047Z,73.81
2023-01-17T13:40:53.043Z,70.91
2023-01-17T13:41:53.048Z,71.94
2023-01-17T13:42:52.998Z,72.46
2023-01-17T13:43:53.008Z,74.95
2023-01-17T13:44:52.994Z,74.74
2023-01-17T13:45:53.020Z,69.25
2023-01-17T13:46:52.987Z,70.70
2023-01-17T13:47:52.972Z,69.25
2023-01-17T13:48:52.937Z,71.84
2023-01-17T13:49:52.946Z,73.71
2023-01-17T13:50:52.919Z,73.91
2023-01-17T13:51:52.928Z,72.15
2023-01-17T13:52:52.914Z,71.01
2023-01-17T13:53:52.895Z,71.53
2023-01-17T13:54:52.875Z,69.80
2023-01-17T13:55:52.896Z,68.46
2023-01-17T13:56:52.879Z,69.08
2023-01-17T13:57:52.860Z,67.52
2023-01-17T13:58:52.835Z,69.29
2023-01-17T13:59:52.835Z,68.77
2023-01-17T14:00:52.881Z,70.53
2023-01-17T14:01:52.963Z,70.84
2023-01-17T14:02:54.714Z,70.01
2023-01-17T14:03:52.807Z,68.56
2023-01-17T14:04:52.792Z,69.08
2023-01-17T14:05:52.757Z,70.01
2023-01-17T14:06:52.741Z,67.63
2023-01-17T14:07:52.778Z,71.56
2023-01-17T14:08:52.719Z,69.90
2023-01-17T14:09:52.739Z,73.01
2023-01-17T14:10:52.700Z,70.11
2023-01-17T14:11:52.709Z,71.77
2023-01-17T14:12:52.672Z,71.12
2023-01-17T14:13:52.674Z,69.49
2023-01-17T14:14:52.657Z,68.43
2023-01-17T14:15:52.671Z,69.77
2023-01-17T14:16:52.632Z,70.39
2023-01-17T14:17:52.657Z,71.33
2023-01-17T14:18:52.614Z,70.50
2023-01-17T14:19:52.789Z,70.60
2023-01-17T14:20:52.609Z,67.39
2023-01-17T14:21:52.611Z,69.87
2023-01-17T14:22:52.565Z,70.91
2023-01-17T14:23:52.604Z,67.73
2023-01-17T14:24:52.543Z,69.08
2023-01-17T14:25:52.586Z,71.63
2023-01-17T14:26:52.522Z,73.81
2023-01-17T14:27:52.523Z,71.53
2023-01-17T14:28:52.500Z,70.73
2023-01-17T14:29:52.506Z,72.50
2023-01-17T14:30:52.497Z,74.84
2023-01-17T14:31:52.566Z,71.25
2023-01-17T14:32:52.457Z,68.35
2023-01-17T14:33:52.470Z,65.87
2023-01-17T14:34:52.444Z,68.98
2023-01-17T14:35:52.501Z,70.21
2023-01-17T14:36:52.422Z,68.87
2023-01-17T14:37:52.423Z,70.32
2023-01-17T14:38:52.395Z,74.26
2023-01-17T14:39:52.403Z,68.04
2023-01-17T14:40:52.425Z,70.42
2023-01-17T14:41:52.384Z,72.19
2023-01-17T14:42:52.390Z,71.56
2023-01-17T14:43:52.377Z,70.63
2023-01-17T14:44:52.344Z,70.42
2023-01-17T14:45:52.403Z,68.56
2023-01-17T14:46:52.304Z,69.80
2023-01-17T14:47:52.307Z,70.94
2023-01-17T14:48:52.289Z,72.39
2023-01-17T14:49:52.297Z,72.19
2023-01-17T14:50:52.317Z,72.71
2023-01-17T14:51:52.266Z,72.19
2023-01-17T14:52:52.249Z,73.22
2023-01-17T14:53:52.266Z,75.50
2023-01-17T14:54:52.220Z,73.32
2023-01-17T14:55:52.229Z,75.09
2023-01-17T14:56:52.223Z,73.43
2023-01-17T14:57:52.210Z,72.19
2023-01-17T14:58:52.176Z,71.49
2023-01-17T14:59:52.187Z,72.94
2023-01-17T15:00:52.350Z,75.84
2023-01-17T15:02:06.270Z,74.08
2023-01-17T15:02:52.334Z,75.02
2023-01-17T15:03:52.137Z,76.15
2023-01-17T15:04:52.143Z,73.15
2023-01-17T15:05:52.141Z,73.77
2023-01-17T15:06:52.101Z,72.94
2023-01-17T15:07:52.091Z,71.91
2023-01-17T15:08:52.082Z,73.05
2023-01-17T15:09:52.083Z,72.84
2023-01-17T15:10:52.069Z,73.67
2023-01-17T15:11:52.081Z,76.05
2023-01-17T15:12:52.032Z,76.15
2023-01-17T15:13:52.040Z,75.22
2023-01-17T15:14:52.004Z,75.02
2023-01-17T15:15:52.062Z,73.80
2023-01-17T15:16:52.242Z,77.33
2023-01-17T15:17:51.996Z,76.40
2023-01-17T15:18:51.968Z,77.64
2023-01-17T15:19:52.011Z,74.74
2023-01-17T15:20:51.950Z,75.05
2023-01-17T15:21:51.972Z,75.05
2023-01-17T15:22:51.918Z,73.70
2023-01-17T15:23:51.905Z,75.57
2023-01-17T15:24:51.916Z,72.36
2023-01-17T15:25:51.912Z,71.87
2023-01-17T15:26:51.975Z,74.36
2023-01-17T15:27:51.885Z,73.84
2023-01-17T15:28:51.872Z,74.26
2023-01-17T15:29:51.859Z,75.50
2023-01-17T15:30:52.252Z,74.36
2023-01-17T15:31:51.860Z,75.50
2023-01-17T15:32:51.814Z,77.37
2023-01-17T15:33:51.813Z,74.67
2023-01-17T15:34:51.794Z,77.58
2023-01-17T15:35:51.795Z,78.20
2023-01-17T15:36:51.788Z,75.23
2023-01-17T15:37:51.772Z,74.91
2023-01-17T15:38:51.745Z,72.84
2023-01-17T15:39:51.756Z,75.85
2023-01-17T15:40:51.731Z,73.67
2023-01-17T15:41:51.741Z,74.19
2023-01-17T15:42:51.717Z,76.68
2023-01-17T15:43:51.717Z,76.37
2023-01-17T15:44:51.699Z,76.37
2023-01-17T15:45:51.733Z,73.46
2023-01-17T15:46:51.669Z,74.71
2023-01-17T15:47:51.679Z,73.80
2023-01-17T15:48:51.650Z,76.50
2023-01-17T15:49:51.652Z,78.37
2023-01-17T15:50:51.631Z,74.43
2023-01-17T15:51:51.628Z,75.98
2023-01-17T15:52:51.617Z,77.33
2023-01-17T15:53:51.624Z,78.78
2023-01-17T15:54:51.617Z,77.02
2023-01-17T15:55:51.599Z,77.12
2023-01-17T15:56:51.561Z,76.61
2023-01-17T15:57:51.567Z,75.57
2023-01-17T15:58:51.533Z,77.85
2023-01-17T15:59:51.540Z,77.23
2023-01-17T16:00:51.628Z,75.36
2023-01-17T16:01:51.622Z,78.58
2023-01-17T16:02:51.590Z,78.68
2023-01-17T16:03:51.503Z,80.69
2023-01-17T16:04:51.475Z,79.34
2023-01-17T16:05:51.496Z,76.75
2023-01-17T16:06:51.465Z,76.33
2023-01-17T16:07:51.480Z,75.81
2023-01-17T16:08:51.445Z,74.98
2023-01-17T16:09:51.437Z,74.88
2023-01-17T16:10:51.421Z,75.40
2023-01-17T16:11:51.421Z,75.60
2023-01-17T16:12:51.984Z,74.15
2023-01-17T16:13:51.425Z,76.12
2023-01-17T16:15:10.447Z,76.85
2023-01-17T16:15:51.397Z,77.37
2023-01-17T16:16:51.412Z,75.92
2023-01-17T16:17:51.801Z,76.33
2023-01-17T16:18:51.336Z,77.26
2023-01-17T16:19:51.357Z,77.26
2023-01-17T16:20:51.311Z,76.33
2023-01-17T16:21:51.322Z,76.57
2023-01-17T16:22:51.779Z,78.13
2023-01-17T16:23:51.348Z,75.85
2023-01-17T16:24:51.327Z,75.85
2023-01-17T16:25:51.367Z,78.13
2023-01-17T16:26:51.303Z,76.47
2023-01-17T16:27:51.715Z,75.95
2023-01-17T16:28:51.284Z,77.09
2023-01-17T16:29:51.282Z,78.55
2023-01-17T16:30:51.354Z,78.34
2023-01-17T16:31:51.271Z,77.82
2023-01-17T16:32:51.266Z,76.26
2023-01-17T16:33:51.261Z,78.13
2023-01-17T16:34:51.221Z,76.57
2023-01-17T16:35:51.299Z,75.12
2023-01-17T16:36:51.202Z,78.03
2023-01-17T16:37:51.605Z,76.99
2023-01-17T16:38:51.193Z,76.26
2023-01-17T16:39:51.204Z,78.03
2023-01-17T16:40:51.159Z,75.74
2023-01-17T16:41:51.154Z,75.74
2023-01-17T16:42:51.156Z,77.20
2023-01-17T16:43:51.146Z,77.72
2023-01-17T16:44:51.124Z,78.13
2023-01-17T16:45:51.142Z,79.69
2023-01-17T16:46:51.100Z,79.90
2023-01-17T16:47:51.438Z,80.73
2023-01-17T16:48:51.068Z,78.23
2023-01-17T16:49:51.086Z,76.99
2023-01-17T16:50:51.049Z,73.46
2023-01-17T16:51:51.061Z,75.54
2023-01-17T16:52:51.035Z,75.12
2023-01-17T16:53:51.034Z,77.40
2023-01-17T16:54:51.031Z,73.66
2023-01-17T16:55:51.023Z,74.91
2023-01-17T16:56:50.983Z,74.08
2023-01-17T16:57:51.296Z,75.26
2023-01-17T16:58:50.996Z,76.57
2023-01-17T16:59:51.191Z,76.29
2023-01-17T17:00:51.076Z,76.47
2023-01-17T17:01:50.989Z,76.06
2023-01-17T17:02:51.084Z,75.95
2023-01-17T17:03:50.912Z,76.82
2023-01-17T17:04:50.913Z,76.09
2023-01-17T17:05:50.888Z,74.74
2023-01-17T17:06:50.918Z,77.44
2023-01-17T17:07:51.892Z,75.36
2023-01-17T17:08:50.881Z,77.75
2023-01-17T17:09:50.847Z,75.46
2023-01-17T17:10:50.894Z,77.34
2023-01-17T17:11:50.831Z,78.38
2023-01-17T17:12:50.832Z,78.58
2023-01-17T17:13:50.833Z,78.89
2023-01-17T17:14:50.810Z,79.10
2023-01-17T17:15:50.863Z,76.82
2023-01-17T17:16:50.816Z,77.23
2023-01-17T17:17:51.134Z,75.88
2023-01-17T17:18:50.766Z,76.40
2023-01-17T17:19:50.735Z,78.06
2023-01-17T17:20:50.754Z,76.72
2023-01-17T17:21:50.727Z,76.72
2023-01-17T17:22:50.745Z,78.27